createdAt,value
2022-11-19T00:01:06.421Z,32.75
2022-11-19T00:03:34.817Z,31.77
2022-11-19T00:06:06.831Z,32.60
2022-11-19T00:08:33.941Z,31.05
2022-11-19T00:11:09.891Z,34.42
2022-11-19T00:13:37.792Z,33.65
2022-11-19T00:16:07.335Z,33.17
2022-11-19T00:18:34.021Z,29.58
2022-11-19T00:21:12.376Z,35.90
2022-11-19T00:23:40.366Z,29.20
2022-11-19T00:26:09.752Z,33.92
2022-11-19T00:28:36.857Z,30.08
2022-11-19T00:31:08.279Z,30.98
2022-11-19T00:33:35.059Z,32.33
2022-11-19T00:36:02.458Z,36.40
2022-11-19T00:38:30.530Z,33.47
2022-11-19T00:40:57.315Z,31.65
2022-11-19T00:43:42.894Z,33.70
2022-11-19T00:46:10.501Z,31.83
2022-11-19T00:48:38.108Z,32.53
2022-11-19T00:51:05.121Z,33.17
2022-11-19T00:53:31.643Z,32.33
2022-11-19T00:56:02.246Z,32.45
2022-11-19T00:58:28.921Z,30.52
2022-11-19T01:00:55.719Z,29.85
2022-11-19T01:03:23.102Z,36.15
2022-11-19T01:05:50.021Z,33.72
2022-11-19T01:08:16.503Z,32.80
2022-11-19T01:10:43.604Z,33.75
2022-11-19T01:13:29.073Z,34.35
2022-11-19T01:15:55.627Z,31.65
2022-11-19T01:18:22.428Z,34.78
2022-11-19T01:20:48.792Z,32.30
2022-11-19T01:23:15.241Z,36.20
2022-11-19T01:25:41.710Z,37.03
2022-11-19T01:28:08.221Z,33.20
2022-11-19T01:30:34.744Z,34.30
2022-11-19T01:33:01.281Z,34.38
2022-11-19T01:35:27.661Z,31.80
2022-11-19T01:37:54.119Z,34.70
2022-11-19T01:40:20.469Z,37.97
2022-11-19T01:42:49.752Z,29.73
2022-11-19T01:45:54.342Z,34.42
2022-11-19T01:48:22.794Z,36.17
2022-11-19T01:50:56.057Z,30.75
2022-11-19T01:53:26.463Z,28.50
2022-11-19T01:55:53.537Z,27.05
2022-11-19T01:58:22.802Z,28.33
2022-11-19T02:00:49.281Z,29.35
2022-11-19T02:03:16.711Z,29.10
2022-11-19T02:05:43.625Z,26.95
2022-11-19T02:08:37.710Z,30.77
2022-11-19T02:11:25.569Z,26.20
2022-11-19T02:14:21.654Z,25.15
2022-11-19T02:17:13.809Z,26.20
2022-11-19T02:19:52.290Z,25.65
2022-11-19T02:22:57.243Z,26.58
2022-11-19T02:25:38.904Z,28.42
2022-11-19T02:28:13.778Z,22.65
2022-11-19T02:30:43.974Z,22.70
2022-11-19T02:33:48.154Z,22.38
2022-11-19T02:36:23.203Z,22.13
2022-11-19T02:38:52.816Z,22.73
2022-11-19T02:41:53.414Z,22.77
2022-11-19T02:44:48.760Z,26.30
2022-11-19T02:49:48.886Z,19.48
2022-11-19T02:52:16.765Z,23.92
2022-11-19T02:54:43.204Z,21.00
2022-11-19T02:57:12.524Z,19.02
2022-11-19T03:00:16.545Z,17.92
2022-11-19T03:03:26.471Z,18.63
2022-11-19T03:06:07.367Z,18.80
2022-11-19T03:08:33.940Z,19.80
2022-11-19T03:11:18.563Z,19.33
2022-11-19T03:14:47.705Z,17.33
2022-11-19T03:17:25.357Z,19.35
2022-11-19T03:20:07.628Z,18.05
2022-11-19T03:22:44.772Z,20.25
2022-11-19T03:25:38.309Z,18.23
2022-11-19T03:28:10.636Z,17.25
2022-11-19T03:30:39.308Z,18.27
2022-11-19T03:33:11.540Z,18.38
2022-11-19T03:35:49.625Z,17.95
2022-11-19T03:38:22.476Z,14.52
2022-11-19T03:40:50.578Z,15.82
2022-11-19T03:43:21.383Z,15.50
2022-11-19T03:45:51.210Z,16.63
2022-11-19T03:48:22.224Z,14.70
2022-11-19T03:50:53.004Z,14.95
2022-11-19T03:53:21.052Z,11.48
2022-11-19T03:55:54.577Z,13.77
2022-11-19T03:58:24.243Z,14.20
2022-11-19T04:00:50.697Z,11.90
2022-11-19T04:03:17.205Z,10.82
2022-11-19T04:05:43.947Z,9.38
2022-11-19T04:08:10.315Z,9.88
2022-11-19T04:10:37.104Z,9.95
2022-11-19T04:13:03.913Z,8.93
2022-11-19T04:15:30.406Z,10.48
2022-11-19T04:17:56.808Z,8.27
2022-11-19T04:20:23.247Z,8.63
2022-11-19T04:22:52.807Z,8.18
2022-11-19T04:25:19.222Z,9.75
2022-11-19T04:27:46.871Z,9.23
2022-11-19T04:30:13.937Z,7.75
2022-11-19T04:32:40.715Z,7.05
2022-11-19T04:35:07.318Z,8.60
2022-11-19T04:37:33.786Z,7.88
2022-11-19T04:40:00.206Z,8.07
2022-11-19T04:42:26.626Z,7.28
2022-11-19T04:44:53.006Z,7.70
2022-11-19T04:47:19.391Z,11.52
2022-11-19T04:49:45.829Z,8.38
2022-11-19T04:52:12.300Z,8.15
2022-11-19T04:54:39.274Z,7.78
2022-11-19T04:57:05.627Z,7.13
2022-11-19T04:59:32.026Z,7.75
2022-11-19T05:01:58.488Z,8.85
2022-11-19T05:04:24.920Z,7.30
2022-11-19T05:06:51.356Z,6.10
2022-11-19T05:09:18.071Z,7.80
2022-11-19T05:11:44.618Z,6.53
2022-11-19T05:14:11.017Z,7.03
2022-11-19T05:16:37.412Z,8.20
2022-11-19T05:19:03.800Z,8.25
2022-11-19T05:21:30.281Z,6.47
2022-11-19T05:23:56.702Z,7.13
2022-11-19T05:26:24.462Z,7.35
2022-11-19T05:28:50.807Z,9.10
2022-11-19T05:31:17.166Z,8.90
2022-11-19T05:33:43.602Z,7.47
2022-11-19T05:36:10.026Z,7.20
2022-11-19T05:38:37.424Z,7.82
2022-11-19T05:41:04.423Z,7.95
2022-11-19T05:43:30.926Z,9.07
2022-11-19T05:46:01.002Z,8.77
2022-11-19T05:48:28.137Z,7.97
2022-11-19T05:50:54.936Z,7.90
2022-11-19T05:53:21.496Z,7.65
2022-11-19T05:55:47.944Z,7.38
2022-11-19T05:58:14.385Z,6.88
2022-11-19T06:00:40.784Z,5.95
2022-11-19T06:03:07.181Z,7.65
2022-11-19T06:05:38.781Z,7.00
2022-11-19T06:08:06.864Z,6.40
2022-11-19T06:10:33.443Z,6.60
2022-11-19T06:12:59.817Z,5.30
2022-11-19T06:15:26.253Z,6.10
2022-11-19T06:17:52.615Z,7.38
2022-11-19T06:20:19.183Z,6.47
2022-11-19T06:22:45.595Z,6.28
2022-11-19T06:25:12.015Z,5.30
2022-11-19T06:27:38.487Z,6.38
2022-11-19T06:30:06.520Z,5.28
2022-11-19T06:32:33.163Z,5.50
2022-11-19T06:34:59.550Z,5.43
2022-11-19T06:37:26.030Z,5.40
2022-11-19T06:39:52.469Z,5.57
2022-11-19T06:42:36.758Z,7.10
2022-11-19T06:45:12.736Z,6.05
2022-11-19T06:47:40.715Z,4.90
2022-11-19T06:50:08.881Z,6.10
2022-11-19T06:52:35.812Z,5.03
2022-11-19T06:55:02.563Z,3.90
2022-11-19T06:57:28.919Z,5.65
2022-11-19T06:59:55.334Z,5.15
2022-11-19T07:02:21.980Z,4.88
2022-11-19T07:04:48.622Z,4.53
2022-11-19T07:07:15.089Z,4.22
2022-11-19T07:09:41.537Z,5.65
2022-11-19T07:12:08.587Z,4.60
2022-11-19T07:14:35.742Z,5.68
2022-11-19T07:17:02.731Z,7.72
2022-11-19T07:19:29.113Z,5.68
2022-11-19T07:21:55.502Z,4.47
2022-11-19T07:24:22.034Z,5.03
2022-11-19T07:26:48.461Z,6.38
2022-11-19T07:29:15.686Z,4.70
2022-11-19T07:31:42.403Z,4.93
2022-11-19T07:34:10.239Z,6.70
2022-11-19T07:36:37.180Z,9.00
2022-11-19T07:39:05.006Z,5.90
2022-11-19T07:41:50.243Z,8.05
2022-11-19T07:44:16.769Z,5.63
2022-11-19T07:46:43.202Z,5.07
2022-11-19T07:49:09.578Z,6.38
2022-11-19T07:51:36.067Z,5.47
2022-11-19T07:54:02.575Z,5.20
2022-11-19T07:56:29.135Z,5.72
2022-11-19T07:58:55.506Z,4.22
2022-11-19T08:01:23.788Z,5.35
2022-11-19T08:03:56.241Z,15.48
2022-11-19T08:06:25.688Z,5.43
2022-11-19T08:08:52.549Z,6.13
2022-11-19T08:11:19.365Z,6.30
2022-11-19T08:13:45.846Z,5.30
2022-11-19T08:16:34.415Z,5.63
2022-11-19T08:19:12.817Z,6.05
2022-11-19T08:21:46.736Z,6.15
2022-11-19T08:24:14.323Z,6.97
2022-11-19T08:26:41.344Z,6.88
2022-11-19T08:29:14.651Z,6.38
2022-11-19T08:31:44.061Z,7.40
2022-11-19T08:34:10.471Z,6.63
2022-11-19T08:36:38.048Z,6.60
2022-11-19T08:39:04.506Z,6.70
2022-11-19T08:41:49.363Z,6.75
2022-11-19T08:44:15.844Z,7.97
2022-11-19T08:46:42.252Z,7.25
2022-11-19T08:49:08.780Z,7.20
2022-11-19T08:51:35.564Z,8.05
2022-11-19T08:54:01.951Z,6.43
2022-11-19T08:56:28.520Z,9.52
2022-11-19T08:58:59.882Z,7.47
2022-11-19T09:01:28.876Z,9.43
2022-11-19T09:03:55.320Z,8.00
2022-11-19T09:06:21.794Z,9.35
2022-11-19T09:08:48.212Z,8.20
2022-11-19T09:11:17.362Z,9.35
2022-11-19T09:13:43.890Z,8.70
2022-11-19T09:16:11.525Z,8.13
2022-11-19T09:18:39.957Z,9.18
2022-11-19T09:21:07.356Z,9.25
2022-11-19T09:23:33.824Z,7.82
2022-11-19T09:26:06.740Z,8.95
2022-11-19T09:28:34.100Z,8.38
2022-11-19T09:31:07.484Z,8.57
2022-11-19T09:33:36.165Z,10.63
2022-11-19T09:36:03.191Z,9.80
2022-11-19T09:38:31.618Z,8.32
2022-11-19T09:41:13.872Z,8.73
2022-11-19T09:43:55.516Z,9.30
2022-11-19T09:46:29.492Z,7.50
2022-11-19T09:49:02.738Z,7.97
2022-11-19T09:51:34.156Z,6.75
2022-11-19T09:54:07.374Z,9.63
2022-11-19T09:56:45.496Z,9.15
2022-11-19T09:59:28.889Z,8.90
2022-11-19T10:01:55.328Z,8.43
2022-11-19T10:04:26.612Z,10.25
2022-11-19T10:07:18.019Z,10.63
2022-11-19T10:09:59.425Z,8.13
2022-11-19T10:12:33.347Z,8.27
2022-11-19T10:15:24.441Z,9.85
2022-11-19T10:18:04.684Z,9.02
2022-11-19T10:20:58.359Z,7.72
2022-11-19T10:23:45.000Z,8.32
2022-11-19T10:26:15.887Z,7.43
2022-11-19T10:28:51.493Z,8.75
2022-11-19T10:31:29.161Z,6.35
2022-11-19T10:34:23.338Z,9.10
2022-11-19T10:37:07.338Z,7.85
2022-11-19T10:39:38.309Z,7.87
2022-11-19T10:42:22.027Z,8.50
2022-11-19T10:45:03.887Z,8.30
2022-11-19T10:47:34.347Z,9.18
2022-11-19T10:50:00.796Z,5.75
2022-11-19T10:52:31.309Z,6.47
2022-11-19T10:55:26.996Z,7.25
2022-11-19T10:58:05.883Z,7.20
2022-11-19T11:00:33.076Z,7.35
2022-11-19T11:03:04.262Z,5.47
2022-11-19T11:05:31.819Z,7.25
2022-11-19T11:08:11.195Z,5.35
2022-11-19T11:10:44.269Z,6.95
2022-11-19T11:13:45.383Z,6.47
2022-11-19T11:16:16.200Z,6.97
2022-11-19T11:18:43.066Z,6.18
2022-11-19T11:21:24.500Z,6.50
2022-11-19T11:23:53.701Z,6.55
2022-11-19T11:26:30.667Z,6.40
2022-11-19T11:28:59.021Z,5.45
2022-11-19T11:31:31.418Z,5.68
2022-11-19T11:33:58.169Z,6.82
2022-11-19T11:36:26.880Z,5.22
2022-11-19T11:38:56.445Z,5.60
2022-11-19T11:44:37.326Z,5.50
2022-11-19T11:47:38.155Z,5.60
2022-11-19T11:50:15.083Z,5.43
2022-11-19T11:52:48.146Z,5.18
2022-11-19T11:55:29.451Z,5.70
2022-11-19T11:58:02.025Z,4.55
2022-11-19T12:00:38.760Z,5.13
2022-11-19T12:03:15.766Z,4.13
2022-11-19T12:05:57.147Z,4.70
2022-11-19T12:08:35.799Z,4.45
2022-11-19T12:11:11.310Z,3.70
2022-11-19T12:14:08.015Z,4.38
2022-11-19T12:16:39.972Z,3.70
2022-11-19T12:19:38.116Z,5.03
2022-11-19T12:22:27.880Z,4.80
2022-11-19T12:25:29.777Z,5.43
2022-11-19T12:27:58.895Z,5.07
2022-11-19T12:30:34.045Z,5.50
2022-11-19T12:33:28.788Z,4.72
2022-11-19T12:36:20.504Z,5.30
2022-11-19T12:38:56.281Z,4.45
2022-11-19T12:41:44.252Z,3.58
2022-11-19T12:44:44.719Z,4.63
2022-11-19T12:47:45.080Z,4.40
2022-11-19T12:50:36.496Z,3.63
2022-11-19T12:54:04.417Z,4.55
2022-11-19T12:56:50.604Z,5.18
2022-11-19T12:59:34.937Z,4.75
2022-11-19T13:02:07.968Z,4.00
2022-11-19T13:04:44.538Z,6.03
2022-11-19T13:07:27.451Z,3.50
2022-11-19T13:10:12.325Z,3.88
2022-11-19T13:12:44.072Z,5.03
2022-11-19T13:15:25.727Z,4.03
2022-11-19T13:17:55.466Z,3.40
2022-11-19T13:20:38.748Z,4.68
2022-11-19T13:23:07.018Z,4.22
2022-11-19T13:25:39.957Z,6.03
2022-11-19T13:28:18.589Z,4.35
2022-11-19T13:30:48.613Z,3.65
2022-11-19T13:33:21.769Z,7.13
2022-11-19T13:36:06.022Z,5.05
2022-11-19T13:38:56.595Z,4.72
2022-11-19T13:41:32.503Z,4.50
2022-11-19T13:44:18.091Z,5.13
2022-11-19T13:46:54.821Z,4.70
2022-11-19T13:49:31.667Z,7.93
2022-11-19T13:52:07.431Z,4.82
2022-11-19T13:54:36.575Z,5.22
2022-11-19T13:57:05.194Z,5.53
2022-11-19T13:59:45.155Z,5.25
2022-11-19T14:02:14.236Z,4.53
2022-11-19T14:04:58.925Z,5.25
2022-11-19T14:07:45.510Z,6.43
2022-11-19T14:10:37.411Z,5.28
2022-11-19T14:13:29.405Z,5.38
2022-11-19T14:16:33.986Z,4.68
2022-11-19T14:19:21.355Z,3.97
2022-11-19T14:22:12.058Z,4.10
2022-11-19T14:24:56.968Z,4.20
2022-11-19T14:27:26.027Z,3.85
2022-11-19T14:30:02.977Z,4.78
2022-11-19T14:32:36.870Z,17.13
2022-11-19T14:35:03.737Z,28.20
2022-11-19T14:37:50.783Z,18.75
2022-11-19T14:40:29.359Z,8.75
2022-11-19T14:43:20.387Z,7.15
2022-11-19T14:46:05.385Z,7.90
2022-11-19T14:51:31.593Z,5.97
2022-11-19T14:54:15.704Z,6.90
2022-11-19T14:56:46.685Z,6.18
2022-11-19T14:59:15.893Z,5.13
2022-11-19T15:01:49.893Z,4.80
2022-11-19T15:04:18.637Z,5.85
2022-11-19T15:06:45.871Z,5.65
2022-11-19T15:09:12.316Z,6.03
2022-11-19T15:11:56.982Z,4.60
2022-11-19T15:14:29.629Z,5.07
2022-11-19T15:16:58.752Z,5.13
2022-11-19T15:19:45.139Z,4.50
2022-11-19T15:22:29.866Z,5.43
2022-11-19T15:25:21.076Z,4.60
2022-11-19T15:27:58.273Z,5.63
2022-11-19T15:30:42.072Z,7.13
2022-11-19T15:33:08.477Z,5.55
2022-11-19T15:36:02.301Z,5.40
2022-11-19T15:38:38.548Z,15.40
2022-11-19T15:41:06.063Z,20.95
2022-11-19T15:44:04.903Z,27.48
2022-11-19T15:46:42.749Z,23.75
2022-11-19T15:49:24.934Z,19.77
2022-11-19T15:52:04.611Z,14.18
2022-11-19T15:54:33.942Z,13.50
2022-11-19T15:57:20.542Z,10.15
2022-11-19T15:59:54.332Z,8.30
2022-11-19T16:02:35.285Z,6.85
2022-11-19T16:05:01.784Z,5.97
2022-11-19T16:07:30.199Z,5.85
2022-11-19T16:09:58.613Z,6.93
2022-11-19T16:12:46.444Z,7.07
2022-11-19T16:15:43.811Z,6.35
2022-11-19T16:18:19.381Z,4.60
2022-11-19T16:20:52.055Z,9.15
2022-11-19T16:23:24.254Z,7.47
2022-11-19T16:25:51.989Z,5.93
2022-11-19T16:28:23.539Z,6.28
2022-11-19T16:30:53.198Z,8.45
2022-11-19T16:33:23.029Z,7.35
2022-11-19T16:35:53.225Z,5.63
2022-11-19T16:38:28.080Z,5.90
2022-11-19T16:41:15.212Z,7.43
2022-11-19T16:43:44.769Z,6.20
2022-11-19T16:46:17.564Z,8.55
2022-11-19T16:48:49.981Z,7.23
2022-11-19T16:51:30.480Z,5.05
2022-11-19T16:53:57.103Z,5.88
2022-11-19T16:56:24.384Z,7.50
2022-11-19T16:59:01.254Z,5.40
2022-11-19T17:01:29.668Z,5.83
2022-11-19T17:04:07.709Z,6.83
2022-11-19T17:06:37.270Z,7.07
2022-11-19T17:09:05.741Z,8.25
2022-11-19T17:12:08.662Z,7.87
2022-11-19T17:14:34.956Z,6.70
2022-11-19T17:17:02.334Z,7.03
2022-11-19T17:19:36.233Z,6.63
2022-11-19T17:22:06.868Z,7.55
2022-11-19T17:24:44.450Z,10.53
2022-11-19T17:27:31.133Z,6.93
2022-11-19T17:30:02.478Z,8.63
2022-11-19T17:32:34.713Z,8.40
2022-11-19T17:35:01.234Z,7.13
2022-11-19T17:37:27.699Z,23.07
2022-11-19T17:39:54.143Z,9.77
2022-11-19T17:42:39.240Z,8.90
2022-11-19T17:45:10.742Z,10.30
2022-11-19T17:47:37.533Z,9.90
2022-11-19T17:50:04.308Z,11.03
2022-11-19T17:52:31.754Z,10.20
2022-11-19T17:55:16.705Z,10.90
2022-11-19T18:00:10.296Z,10.10
2022-11-19T18:02:36.895Z,8.63
2022-11-19T18:05:23.201Z,6.33
2022-11-19T18:07:49.702Z,7.03
2022-11-19T18:10:16.240Z,7.93
2022-11-19T18:12:42.607Z,6.47
2022-11-19T18:15:17.895Z,7.33
2022-11-19T18:17:44.485Z,7.70
2022-11-19T18:20:11.496Z,9.98
2022-11-19T18:22:38.288Z,8.85
2022-11-19T18:25:17.413Z,8.60
2022-11-19T18:27:44.920Z,9.20
2022-11-19T18:30:12.666Z,8.07
2022-11-19T18:32:39.227Z,11.25
2022-11-19T18:35:14.187Z,8.87
2022-11-19T18:37:40.561Z,7.73
2022-11-19T18:40:07.610Z,6.83
2022-11-19T18:42:34.880Z,7.07
2022-11-19T18:45:01.322Z,8.50
2022-11-19T18:47:27.949Z,7.30
2022-11-19T18:49:54.360Z,9.63
2022-11-19T18:52:20.809Z,9.50
2022-11-19T18:54:47.208Z,7.47
2022-11-19T18:57:13.972Z,8.07
2022-11-19T18:59:41.385Z,8.07
2022-11-19T19:02:09.936Z,6.70
2022-11-19T19:04:36.414Z,7.53
2022-11-19T19:07:02.865Z,7.30
2022-11-19T19:09:29.403Z,10.83
2022-11-19T19:12:14.372Z,8.00
2022-11-19T19:17:08.079Z,6.37
2022-11-19T19:19:34.456Z,8.93
2022-11-19T19:22:00.938Z,7.22
2022-11-19T19:24:27.484Z,5.97
2022-11-19T19:26:54.279Z,10.20
2022-11-19T19:29:20.956Z,25.23
2022-11-19T19:31:47.610Z,35.23
2022-11-19T19:34:14.055Z,23.40
2022-11-19T19:36:40.435Z,14.27
2022-11-19T19:39:06.854Z,12.83
2022-11-19T19:41:33.777Z,11.57
2022-11-19T19:44:03.016Z,11.20
2022-11-19T19:46:30.151Z,9.00
2022-11-19T19:48:56.810Z,10.00
2022-11-19T19:51:28.655Z,8.47
2022-11-19T19:53:56.041Z,9.83
2022-11-19T19:56:27.766Z,10.60
2022-11-19T19:58:55.549Z,10.67
2022-11-19T20:01:27.634Z,12.30
2022-11-19T20:03:55.085Z,10.33
2022-11-19T20:06:23.446Z,12.75
2022-11-19T20:08:50.102Z,11.98
2022-11-19T20:11:26.985Z,11.47
2022-11-19T20:13:55.716Z,9.77
2022-11-19T20:16:28.089Z,11.10
2022-11-19T20:18:55.401Z,8.97
2022-11-19T20:21:25.299Z,8.90
2022-11-19T20:23:53.384Z,17.23
2022-11-19T20:26:22.634Z,12.60
2022-11-19T20:28:54.900Z,12.07
2022-11-19T20:31:21.491Z,12.67
2022-11-19T20:33:52.424Z,20.57
2022-11-19T20:36:19.041Z,20.97
2022-11-19T20:38:48.425Z,16.87
2022-11-19T20:41:34.952Z,17.00
2022-11-19T20:44:22.028Z,20.77
2022-11-19T20:46:55.772Z,35.00
2022-11-19T20:49:43.780Z,25.70
2022-11-19T20:52:10.848Z,23.37
2022-11-19T20:54:37.361Z,25.43
2022-11-19T20:57:04.107Z,21.13
2022-11-19T20:59:30.574Z,15.40
2022-11-19T21:01:57.505Z,15.80
2022-11-19T21:04:26.386Z,24.37
2022-11-19T21:06:55.556Z,19.37
2022-11-19T21:09:22.183Z,18.70
2022-11-19T21:11:48.765Z,18.27
2022-11-19T21:14:15.193Z,16.57
2022-11-19T21:16:41.706Z,13.80
2022-11-19T21:19:09.435Z,16.40
2022-11-19T21:21:35.912Z,13.80
2022-11-19T21:24:02.323Z,27.27
2022-11-19T21:26:29.144Z,22.73
2022-11-19T21:28:57.626Z,17.57
2022-11-19T21:31:39.651Z,14.70
2022-11-19T21:34:13.994Z,12.03
2022-11-19T21:36:42.053Z,11.60
2022-11-19T21:39:09.847Z,10.87
2022-11-19T21:41:37.130Z,12.83
2022-11-19T21:44:04.831Z,11.30
2022-11-19T21:46:31.480Z,13.50
2022-11-19T21:48:58.048Z,13.30
2022-11-19T21:51:25.336Z,15.67
2022-11-19T21:53:56.714Z,12.13
2022-11-19T21:56:24.210Z,11.87
2022-11-19T21:58:50.687Z,10.63
2022-11-19T22:01:17.566Z,13.87
2022-11-19T22:03:43.956Z,15.40
2022-11-19T22:06:11.719Z,17.50
2022-11-19T22:08:40.402Z,11.73
2022-11-19T22:11:26.648Z,17.37
2022-11-19T22:13:54.905Z,10.97
2022-11-19T22:16:21.940Z,11.73
2022-11-19T22:18:48.879Z,10.27
2022-11-19T22:21:15.617Z,10.70
2022-11-19T22:23:42.013Z,14.90
2022-11-19T22:26:10.265Z,15.57
2022-11-19T22:28:36.955Z,10.93
2022-11-19T22:31:03.820Z,10.47
2022-11-19T22:33:34.405Z,8.93
2022-11-19T22:36:08.070Z,11.77
2022-11-19T22:38:36.976Z,12.37
2022-11-19T22:41:09.481Z,12.67
2022-11-19T22:43:37.037Z,11.50
2022-11-19T22:46:04.137Z,12.27
2022-11-19T22:48:32.293Z,11.73
2022-11-19T22:50:58.880Z,15.60
2022-11-19T22:53:25.621Z,22.20
2022-11-19T22:55:52.128Z,18.37
2022-11-19T22:58:18.543Z,21.80
2022-11-19T23:00:49.755Z,19.80
2022-11-19T23:03:16.367Z,19.47
2022-11-19T23:05:49.222Z,14.53
2022-11-19T23:08:15.600Z,13.33
2022-11-19T23:10:41.990Z,13.33
2022-11-19T23:13:29.998Z,15.10
2022-11-19T23:16:16.854Z,13.20
2022-11-19T23:18:48.536Z,12.30
2022-11-19T23:21:17.796Z,10.90
2022-11-19T23:23:44.403Z,13.47
2022-11-19T23:26:13.408Z,14.07
2022-11-19T23:28:40.102Z,40.77
2022-11-19T23:31:13.540Z,35.67
2022-11-19T23:33:40.168Z,25.40
2022-11-19T23:36:08.929Z,23.27
2022-11-19T23:38:36.252Z,19.30
2022-11-19T23:41:04.863Z,17.93
2022-11-19T23:43:31.656Z,16.03
2022-11-19T23:46:09.863Z,14.37
2022-11-19T23:48:37.677Z,12.77
2022-11-19T23:51:10.107Z,12.33
2022-11-19T23:53:37.184Z,9.63
2022-11-19T23:56:03.900Z,12.30
2022-11-19T23:58:30.475Z,18.40
